Time;durP1;ratioP1;P1;durP2;ratioP2;P2;SDS_P1;SDS_P2;PMS_P1;PMS_P2;Temp;Humidity;BMP_temperature;BMP_pressure;BME280_temperature;BME280_humidity;BME280_pressure;Samples;Min_cycle;Max_cycle;Signal;HPM_P1;HPM_P2
2021/05/24 00:01:03;;;;;;;;;9.75;7.75;;;;;8.53;100.00;100158.13;3600259;39;13983;-58
2021/05/24 00:03:31;;;;;;;;;12.25;11.00;;;;;8.36;100.00;100171.34;3596832;39;13977;-58
2021/05/24 00:05:59;;;;;;;;;11.25;11.00;;;;;8.55;100.00;100169.59;3597532;39;14000;-59
2021/05/24 00:08:27;;;;;;;;;12.00;11.00;;;;;8.29;100.00;100170.78;3595433;39;14028;-58
2021/05/24 00:10:54;;;;;;;;;10.50;10.00;;;;;8.30;100.00;100175.19;3598831;39;11092;-58
2021/05/24 00:13:23;;;;;;;;;7.00;7.00;;;;;8.28;100.00;100170.81;3597055;39;14219;-58
2021/05/24 00:15:56;;;;;;;;;10.50;9.25;;;;;8.12;100.00;100167.97;3596951;39;13984;-58
2021/05/24 00:18:24;;;;;;;;;11.50;10.25;;;;;8.02;100.00;100175.50;3604277;39;10703;-58
2021/05/24 00:20:56;;;;;;;;;12.33;8.33;;;;;7.95;100.00;100167.81;3596958;39;14042;-59
2021/05/24 00:23:24;;;;;;;;;11.00;10.00;;;;;7.67;100.00;100175.22;3597107;39;10282;-58
2021/05/24 00:25:51;;;;;;;;;13.67;11.00;;;;;7.59;100.00;100171.97;3597390;39;10204;-59
2021/05/24 00:28:19;;;;;;;;;13.67;11.00;;;;;7.69;100.00;100173.34;3596713;39;9894;-58
2021/05/24 00:30:49;;;;;;;;;11.67;9.00;;;;;7.58;100.00;100174.72;3596759;39;10453;-58
2021/05/24 00:33:18;;;;;;;;;13.67;8.33;;;;;7.45;100.00;100180.56;3596816;40;10069;-58
2021/05/24 00:35:46;;;;;;;;;7.00;7.00;;;;;7.50;100.00;100182.16;3597441;39;10483;-58
2021/05/24 00:38:13;;;;;;;;;7.00;7.00;;;;;7.70;100.00;100190.25;3596091;40;9830;-59
2021/05/24 00:40:41;;;;;;;;;7.00;7.00;;;;;7.83;100.00;100195.94;3597165;39;9799;-59
2021/05/24 00:43:09;;;;;;;;;8.00;8.00;;;;;7.59;100.00;100185.34;3597151;39;9944;-58
2021/05/24 00:45:39;;;;;;;;;11.00;7.00;;;;;7.74;100.00;100186.53;3593014;39;9825;-58
2021/05/24 00:48:08;;;;;;;;;10.67;10.33;;;;;7.94;100.00;100192.81;3596205;40;9813;-59
2021/05/24 00:50:38;;;;;;;;;9.67;9.00;;;;;7.89;100.00;100195.69;3590500;39;10658;-58
2021/05/24 00:53:06;;;;;;;;;7.67;7.00;;;;;7.63;100.00;100194.97;3597120;40;9798;-57
2021/05/24 00:55:33;;;;;;;;;10.67;9.00;;;;;7.46;100.00;100202.81;3596769;39;10270;-58
2021/05/24 00:58:02;;;;;;;;;9.00;9.00;;;;;7.19;100.00;100200.31;3597000;40;9791;-58
2021/05/24 01:00:45;;;;;;;;;11.00;9.00;;;;;7.30;100.00;100201.69;3601070;39;9813;-57
2021/05/24 01:03:14;;;;;;;;;11.33;9.00;;;;;7.34;100.00;100197.94;3594644;40;9756;-57
2021/05/24 01:05:44;;;;;;;;;7.00;7.00;;;;;7.39;100.00;100195.97;3598761;39;9722;-58
2021/05/24 01:08:14;;;;;;;;;11.00;9.00;;;;;7.40;100.00;100197.72;3599028;39;9793;-57
2021/05/24 01:10:44;;;;;;;;;11.00;9.67;;;;;7.38;100.00;100204.94;3596463;40;10825;-59
2021/05/24 01:13:13;;;;;;;;;7.00;7.00;;;;;6.94;100.00;100197.72;3596865;39;9749;-57
2021/05/24 01:15:42;;;;;;;;;9.67;7.67;;;;;7.47;100.00;100204.53;3599994;39;9773;-58
2021/05/24 01:18:10;;;;;;;;;10.00;7.00;;;;;7.46;100.00;100208.16;3597107;39;9786;-58
2021/05/24 01:20:38;;;;;;;;;8.33;7.33;;;;;7.23;100.00;100207.25;3596863;39;10337;-56
2021/05/24 01:23:08;;;;;;;;;9.00;9.00;;;;;7.33;100.00;100215.78;3600403;39;9809;-58
2021/05/24 01:25:47;;;;;;;;;13.67;10.00;;;;;7.60;100.00;100220.94;3596888;39;9796;-57
2021/05/24 01:28:17;;;;;;;;;10.33;9.33;;;;;7.59;100.00;100222.75;3593155;40;9834;-57
2021/05/24 01:30:45;;;;;;;;;10.33;9.00;;;;;7.51;100.00;100232.03;3596356;39;9882;-58
2021/05/24 01:33:13;;;;;;;;;11.00;9.00;;;;;7.48;100.00;100231.22;3596411;39;9811;-57
2021/05/24 01:35:41;;;;;;;;;11.00;10.33;;;;;7.17;100.00;100228.00;3599194;39;9821;-56
2021/05/24 01:38:11;;;;;;;;;10.00;10.00;;;;;7.16;100.00;100220.91;3595898;39;9815;-57
2021/05/24 01:40:42;;;;;;;;;10.67;7.67;;;;;7.13;100.00;100227.25;3598658;39;10275;-57
2021/05/24 01:43:10;;;;;;;;;10.00;10.00;;;;;7.06;100.00;100225.75;3596514;40;9747;-58
2021/05/24 01:45:40;;;;;;;;;12.67;7.33;;;;;6.65;100.00;100225.50;3596749;39;9739;-56
2021/05/24 01:48:09;;;;;;;;;14.00;10.00;;;;;6.52;100.00;100234.88;3596477;39;9953;-55
2021/05/24 01:50:38;;;;;;;;;12.33;8.33;;;;;6.86;100.00;100228.31;3596215;39;9766;-57
2021/05/24 01:53:06;;;;;;;;;9.33;9.00;;;;;7.15;100.00;100228.06;3596818;39;9912;-56
2021/05/24 01:55:33;;;;;;;;;10.00;9.00;;;;;7.01;100.00;100235.75;3595505;39;10499;-56
2021/05/24 01:58:01;;;;;;;;;11.33;9.00;;;;;6.77;100.00;100241.06;3596762;39;9925;-57
2021/05/24 02:00:28;;;;;;;;;14.00;10.00;;;;;6.42;100.00;100246.81;3596443;39;9786;-55
2021/05/24 02:02:56;;;;;;;;;8.00;6.00;;;;;6.62;100.00;100244.28;3596507;39;9801;-55
2021/05/24 02:05:26;;;;;;;;;9.67;6.00;;;;;6.47;100.00;100259.03;3600010;39;9817;-55
2021/05/24 02:07:55;;;;;;;;;8.67;8.00;;;;;6.17;100.00;100260.13;3592617;40;9870;-56
2021/05/24 02:10:30;;;;;;;;;8.67;7.67;;;;;5.98;100.00;100254.53;3597001;39;9863;-55
2021/05/24 02:12:58;;;;;;;;;8.67;8.33;;;;;6.12;100.00;100258.47;3597071;40;9836;-55
2021/05/24 02:15:33;;;;;;;;;9.33;8.67;;;;;6.03;100.00;100263.25;3596463;40;9891;-56
2021/05/24 02:18:01;;;;;;;;;13.00;9.00;;;;;5.91;100.00;100268.03;3595237;39;10165;-58
2021/05/24 02:20:28;;;;;;;;;12.00;9.67;;;;;5.64;100.00;100277.81;3595655;40;9858;-58
2021/05/24 02:22:58;;;;;;;;;9.00;6.67;;;;;6.07;100.00;100275.56;3596344;40;10014;-57
2021/05/24 02:25:26;;;;;;;;;6.00;6.00;;;;;6.04;100.00;100265.88;3596441;39;9925;-56
2021/05/24 02:27:55;;;;;;;;;8.00;8.00;;;;;6.25;100.00;100274.06;3597696;39;10032;-58
2021/05/24 02:30:24;;;;;;;;;14.00;12.00;;;;;5.90;100.00;100274.31;3596304;39;9948;-57
2021/05/24 02:32:52;;;;;;;;;9.67;8.00;;;;;6.02;100.00;100266.84;3596029;40;10019;-58
2021/05/24 02:35:22;;;;;;;;;8.00;8.00;;;;;6.25;100.00;100268.75;3595439;40;9864;-57
2021/05/24 02:37:50;;;;;;;;;9.67;9.00;;;;;6.16;100.00;100272.56;3596529;40;9966;-59
2021/05/24 02:40:20;;;;;;;;;9.67;9.67;;;;;6.09;100.00;100273.72;3596746;39;10023;-58
2021/05/24 02:42:49;;;;;;;;;9.00;9.00;;;;;6.02;100.00;100273.03;3596351;39;9997;-57
2021/05/24 02:45:18;;;;;;;;;11.67;9.00;;;;;6.03;100.00;100273.91;3596200;39;9865;-58
2021/05/24 02:47:47;;;;;;;;;9.00;9.00;;;;;6.03;100.00;100277.47;3595966;40;9821;-58
2021/05/24 02:50:21;;;;;;;;;10.00;9.00;;;;;5.99;100.00;100288.28;3594566;39;9901;-57
2021/05/24 02:52:48;;;;;;;;;13.33;8.00;;;;;5.91;100.00;100292.03;3598302;40;9900;-58
2021/05/24 02:55:17;;;;;;;;;10.00;10.00;;;;;6.20;100.00;100297.34;3597755;39;9880;-57
2021/05/24 02:57:44;;;;;;;;;10.00;10.00;;;;;6.29;100.00;100292.59;3598611;39;9906;-58
2021/05/24 03:00:13;;;;;;;;;9.00;9.00;;;;;6.42;100.00;100292.16;3598884;39;9842;-57
2021/05/24 03:02:47;;;;;;;;;9.67;8.00;;;;;6.28;100.00;100280.16;3596754;40;9893;-55
2021/05/24 03:05:19;;;;;;;;;12.00;9.00;;;;;6.56;100.00;100282.75;3597772;39;9907;-59
2021/05/24 03:07:47;;;;;;;;;12.33;9.67;;;;;6.25;100.00;100293.59;3596965;40;10405;-57
2021/05/24 03:10:17;;;;;;;;;12.00;10.00;;;;;6.29;100.00;100303.25;3599782;39;10148;-57
2021/05/24 03:12:46;;;;;;;;;10.67;8.00;;;;;6.34;100.00;100305.75;3597854;39;9852;-58
2021/05/24 03:15:16;;;;;;;;;8.33;7.33;;;;;6.42;100.00;100300.16;3598044;39;9903;-58
2021/05/24 03:17:44;;;;;;;;;18.67;16.33;;;;;6.67;100.00;100301.03;3595675;40;10054;-58
2021/05/24 03:20:13;;;;;;;;;31.67;27.00;;;;;6.64;100.00;100293.16;3599769;39;10030;-58
2021/05/24 03:22:43;;;;;;;;;30.00;22.33;;;;;6.46;100.00;100288.47;3597142;39;10735;-57
2021/05/24 03:25:12;;;;;;;;;21.67;17.00;;;;;6.09;100.00;100306.56;3597773;39;9977;-58
2021/05/24 03:27:40;;;;;;;;;21.67;17.33;;;;;6.25;100.00;100300.75;3603224;39;9932;-57
2021/05/24 03:30:10;;;;;;;;;16.00;13.67;;;;;6.36;100.00;100291.44;3599438;39;9944;-56
2021/05/24 03:32:38;;;;;;;;;17.00;14.33;;;;;6.37;100.00;100295.84;3597541;39;10080;-58
2021/05/24 03:35:08;;;;;;;;;15.33;13.33;;;;;6.26;100.00;100297.13;3595218;40;9881;-56
2021/05/24 03:37:36;;;;;;;;;15.00;14.67;;;;;6.28;100.00;100301.50;3597734;39;9891;-57
2021/05/24 03:40:06;;;;;;;;;16.67;16.00;;;;;6.12;100.00;100310.94;3596372;40;9986;-57
2021/05/24 03:42:34;;;;;;;;;22.00;17.00;;;;;6.32;100.00;100321.81;3596830;39;9886;-58
2021/05/24 03:45:03;;;;;;;;;12.00;10.67;;;;;6.47;100.00;100320.41;3605116;39;9860;-57
2021/05/24 03:47:31;;;;;;;;;12.00;9.67;;;;;6.24;100.00;100326.53;3597116;39;9922;-57
2021/05/24 03:49:59;;;;;;;;;10.00;9.00;;;;;6.61;100.00;100330.63;3597408;39;10116;-57
2021/05/24 03:52:26;;;;;;;;;12.67;9.33;;;;;6.21;100.00;100325.75;3599557;39;9799;-58
2021/05/24 03:54:53;;;;;;;;;10.00;9.00;;;;;6.44;100.00;100316.97;3598263;39;9848;-56
2021/05/24 03:57:21;;;;;;;;;9.33;9.33;;;;;6.77;100.00;100323.81;3598923;39;10059;-57
2021/05/24 03:59:48;;;;;;;;;8.00;7.33;;;;;7.12;100.00;100345.66;3597538;39;10599;-59
2021/05/24 04:02:15;;;;;;;;;17.00;14.33;;;;;8.42;97.33;100350.38;3597198;39;9836;-59
2021/05/24 04:04:43;;;;;;;;;13.00;11.67;;;;;8.36;95.77;100351.47;3597429;39;9816;-58
2021/05/24 04:07:12;;;;;;;;;13.33;10.33;;;;;7.84;100.00;100350.06;3599463;39;9827;-58
2021/05/24 04:09:41;;;;;;;;;11.00;9.33;;;;;9.67;96.80;100360.00;3600695;39;9997;-59
2021/05/24 04:12:09;;;;;;;;;10.00;10.00;;;;;9.00;91.89;100350.56;3598341;39;10640;-56
2021/05/24 04:14:39;;;;;;;;;11.25;7.25;;;;;9.20;94.96;100344.28;3597329;39;10870;-56
2021/05/24 04:17:07;;;;;;;;;9.00;7.50;;;;;9.71;89.43;100355.34;3599058;39;10531;-56
2021/05/24 04:19:34;;;;;;;;;7.00;7.00;;;;;8.57;96.84;100355.09;3597665;39;14189;-56
2021/05/24 04:22:01;;;;;;;;;8.25;8.00;;;;;8.42;99.42;100366.44;3596929;39;14005;-56
2021/05/24 04:24:29;;;;;;;;;10.50;10.00;;;;;8.70;99.99;100370.63;3597322;39;13962;-55
2021/05/24 04:26:56;;;;;;;;;9.00;7.00;;;;;9.79;91.06;100379.97;3597132;39;14457;-56
2021/05/24 04:29:24;;;;;;;;;11.75;10.50;;;;;8.62;96.91;100378.13;3596946;39;13992;-54
2021/05/24 04:31:51;;;;;;;;;14.00;11.25;;;;;8.55;100.00;100375.69;3596566;39;14002;-56
2021/05/24 04:34:19;;;;;;;;;16.75;14.50;;;;;8.62;100.00;100372.78;3596089;40;14050;-55
2021/05/24 04:36:46;;;;;;;;;21.00;19.00;;;;;8.25;100.00;100366.25;3601205;39;10571;-55
2021/05/24 04:39:13;;;;;;;;;15.00;15.00;;;;;8.52;100.00;100367.78;3595917;40;10440;-56
2021/05/24 04:41:41;;;;;;;;;13.50;12.75;;;;;8.80;100.00;100363.97;3597092;39;11267;-55
2021/05/24 04:44:18;;;;;;;;;13.33;12.00;;;;;9.09;97.31;100372.53;3596781;39;11075;-56
2021/05/24 04:46:49;;;;;;;;;14.67;11.33;;;;;8.83;99.13;100365.63;3597655;39;10429;-54
2021/05/24 04:49:17;;;;;;;;;22.67;15.33;;;;;9.00;99.92;100365.75;3597544;39;14201;-56
2021/05/24 04:51:44;;;;;;;;;30.67;22.33;;;;;9.10;99.54;100360.84;3597182;39;9991;-56
2021/05/24 04:54:12;;;;;;;;;21.00;17.00;;;;;9.50;98.95;100361.72;3597142;40;10413;-54
2021/05/24 04:56:39;;;;;;;;;19.00;17.00;;;;;9.69;98.34;100362.63;3597266;39;10488;-56
2021/05/24 04:59:06;;;;;;;;;19.50;16.50;;;;;10.03;97.02;100361.88;3600107;39;10783;-55
2021/05/24 05:01:34;;;;;;;;;24.50;18.50;;;;;10.19;95.47;100364.69;3596622;39;10754;-56
2021/05/24 05:04:01;;;;;;;;;22.00;21.25;;;;;10.45;94.10;100365.22;3597865;39;11078;-56
2021/05/24 05:06:29;;;;;;;;;18.25;17.25;;;;;10.56;93.65;100360.19;3596603;39;14263;-54
2021/05/24 05:08:56;;;;;;;;;20.75;18.00;;;;;10.75;93.15;100365.50;3596711;40;14028;-54
2021/05/24 05:11:23;;;;;;;;;16.50;14.00;;;;;10.94;92.81;100360.03;3600292;39;14240;-54
2021/05/24 05:13:51;;;;;;;;;15.00;12.00;;;;;11.05;92.50;100368.38;3596009;39;14228;-55
2021/05/24 05:16:18;;;;;;;;;13.00;12.00;;;;;11.20;91.58;100378.31;3600128;39;14219;-55
2021/05/24 05:18:45;;;;;;;;;7.50;6.75;;;;;11.28;92.00;100379.75;3596685;39;14006;-56
2021/05/24 05:21:13;;;;;;;;;3.75;3.00;;;;;11.00;92.80;100378.50;3600401;39;14171;-56
2021/05/24 05:23:40;;;;;;;;;10.00;9.50;;;;;11.41;91.47;100391.56;3595875;39;13945;-57
2021/05/24 05:26:07;;;;;;;;;7.00;6.00;;;;;11.23;92.89;100389.88;3598098;39;14089;-56
2021/05/24 05:28:35;;;;;;;;;10.75;7.00;;;;;11.42;92.64;100398.69;3596532;39;13998;-58
2021/05/24 05:31:02;;;;;;;;;7.75;6.50;;;;;11.77;89.69;100414.72;3597706;39;14191;-56
2021/05/24 05:33:29;;;;;;;;;9.75;7.75;;;;;11.75;90.64;100427.41;3596615;39;14005;-57
2021/05/24 05:35:58;;;;;;;;;6.25;5.25;;;;;12.05;88.05;100431.13;3597147;39;14008;-57
2021/05/24 05:38:28;;;;;;;;;7.00;6.25;;;;;12.24;86.82;100422.00;3596578;40;13955;-57
2021/05/24 05:40:57;;;;;;;;;9.00;6.50;;;;;11.88;90.47;100406.97;3596871;39;14078;-57
2021/05/24 05:43:24;;;;;;;;;4.50;4.00;;;;;11.48;90.30;100411.81;3596433;39;14052;-57
2021/05/24 05:45:52;;;;;;;;;6.25;6.00;;;;;11.64;89.69;100403.78;3596104;39;14022;-57
2021/05/24 05:48:20;;;;;;;;;4.25;4.25;;;;;11.86;89.57;100398.13;3596799;40;14002;-57
2021/05/24 05:50:48;;;;;;;;;3.25;3.25;;;;;11.92;87.94;100392.38;3596966;39;13982;-55
2021/05/24 05:53:19;;;;;;;;;4.25;3.00;;;;;12.54;88.35;100380.81;3596798;39;14015;-57
2021/05/24 05:55:46;;;;;;;;;5.50;4.00;;;;;12.57;87.40;100381.50;3597356;39;13988;-55
2021/05/24 05:58:14;;;;;;;;;6.00;4.00;;;;;12.72;86.93;100402.16;3596718;39;14125;-57
2021/05/24 06:00:41;;;;;;;;;4.50;4.50;;;;;12.99;86.53;100406.00;3596364;40;13991;-57
2021/05/24 06:03:09;;;;;;;;;4.00;4.00;;;;;12.54;85.79;100405.94;3596657;39;14170;-56
2021/05/24 06:05:37;;;;;;;;;4.50;3.00;;;;;12.73;85.69;100400.31;3596615;40;13966;-56
2021/05/24 06:08:05;;;;;;;;;5.00;4.00;;;;;12.16;85.78;100389.28;3595426;39;14061;-56
2021/05/24 06:10:32;;;;;;;;;4.75;4.00;;;;;12.67;87.28;100393.47;3595413;39;13984;-57
2021/05/24 06:13:02;;;;;;;;;8.00;4.00;;;;;12.72;87.36;100390.50;3595763;39;14032;-56
2021/05/24 06:15:30;;;;;;;;;2.25;2.25;;;;;12.63;87.96;100404.50;3596485;39;14019;-59
2021/05/24 06:17:57;;;;;;;;;7.00;4.25;;;;;12.94;85.93;100403.56;3599226;39;13981;-59
2021/05/24 06:20:25;;;;;;;;;4.25;3.00;;;;;13.00;85.34;100411.28;3596433;39;14001;-59
2021/05/24 06:22:52;;;;;;;;;3.25;3.25;;;;;13.78;83.70;100411.91;3596133;40;14045;-59
2021/05/24 06:25:19;;;;;;;;;3.00;3.00;;;;;13.68;82.09;100413.44;3596829;39;13993;-59
2021/05/24 06:27:47;;;;;;;;;5.00;3.00;;;;;13.52;82.48;100420.75;3597923;39;14011;-57
2021/05/24 06:30:15;;;;;;;;;3.00;3.00;;;;;14.32;81.02;100442.69;3600663;39;14008;-57
2021/05/24 06:32:44;;;;;;;;;3.00;3.00;;;;;13.89;80.50;100440.03;3597661;39;14009;-56
2021/05/24 06:35:12;;;;;;;;;3.00;3.00;;;;;14.21;80.87;100441.53;3597856;39;14001;-57
2021/05/24 06:37:40;;;;;;;;;3.50;3.50;;;;;14.28;79.77;100437.47;3600447;39;14349;-57
2021/05/24 06:40:08;;;;;;;;;2.00;2.00;;;;;14.51;79.82;100432.41;3597518;39;13979;-57
2021/05/24 06:42:35;;;;;;;;;2.50;2.00;;;;;14.34;77.74;100429.94;3597791;40;14059;-57
2021/05/24 06:45:05;;;;;;;;;3.25;3.25;;;;;14.11;79.73;100432.28;3597970;39;13906;-57
2021/05/24 06:47:32;;;;;;;;;3.00;3.00;;;;;14.72;76.30;100432.88;3595910;39;13918;-57
2021/05/24 06:50:01;;;;;;;;;5.00;3.50;;;;;15.51;76.05;100434.66;3596420;40;13943;-58
2021/05/24 06:52:28;;;;;;;;;2.50;2.50;;;;;15.38;73.63;100428.34;3597608;39;14063;-58
2021/05/24 06:54:56;;;;;;;;;2.50;2.00;;;;;15.96;75.03;100431.50;3601045;39;13917;-58
2021/05/24 06:57:23;;;;;;;;;2.75;2.00;;;;;15.36;75.86;100439.28;3596997;39;13921;-57
2021/05/24 06:59:50;;;;;;;;;2.00;2.00;;;;;15.94;72.91;100442.44;3600412;39;14576;-58
2021/05/24 07:02:18;;;;;;;;;3.00;2.50;;;;;15.79;72.02;100446.25;3597350;39;14616;-57
2021/05/24 07:04:46;;;;;;;;;5.75;2.00;;;;;17.14;70.62;100455.31;3598004;39;14094;-59
2021/05/24 07:07:13;;;;;;;;;2.00;2.00;;;;;17.08;70.08;100469.31;3593400;39;13881;-58
2021/05/24 07:09:41;;;;;;;;;2.00;2.00;;;;;16.66;71.51;100471.53;3596808;39;12894;-58
2021/05/24 07:12:10;;;;;;;;;2.50;2.00;;;;;16.35;71.65;100467.50;3601177;39;12558;-58
2021/05/24 07:14:43;;;;;;;;;3.75;3.00;;;;;15.90;73.80;100462.59;3598210;39;12928;-57
2021/05/24 07:17:10;;;;;;;;;3.50;2.50;;;;;16.15;70.52;100455.44;3596862;39;13130;-58
2021/05/24 07:19:38;;;;;;;;;2.00;2.00;;;;;16.64;70.82;100444.56;3596689;39;13676;-58
2021/05/24 07:22:05;;;;;;;;;2.50;2.50;;;;;16.40;70.38;100444.53;3596909;39;13184;-58
2021/05/24 07:24:33;;;;;;;;;3.00;3.00;;;;;17.30;68.61;100434.13;3597005;39;12619;-59
2021/05/24 07:27:01;;;;;;;;;2.00;2.00;;;;;17.67;68.33;100436.66;3596421;40;12781;-58
2021/05/24 07:29:29;;;;;;;;;2.50;1.75;;;;;17.14;68.46;100433.59;3596936;39;12396;-59
2021/05/24 07:31:57;;;;;;;;;1.50;1.50;;;;;16.34;70.18;100442.25;3596604;40;12319;-59
2021/05/24 07:34:41;;;;;;;;;1.50;1.50;;;;;16.33;72.49;100443.25;3595238;39;12721;-59
2021/05/24 07:37:08;;;;;;;;;2.00;2.00;;;;;16.54;71.90;100435.38;3594840;39;12762;-59
2021/05/24 07:39:36;;;;;;;;;2.00;2.00;;;;;17.17;69.59;100430.63;3596859;39;13159;-59
2021/05/24 07:42:06;;;;;;;;;2.00;2.00;;;;;17.00;69.93;100429.19;3595581;40;12721;-59
2021/05/24 07:44:34;;;;;;;;;3.00;2.00;;;;;16.66;69.49;100439.00;3596855;40;12353;-59
2021/05/24 07:47:03;;;;;;;;;4.75;2.00;;;;;17.57;68.83;100427.50;3595313;40;13468;-59
2021/05/24 07:49:31;;;;;;;;;3.25;2.00;;;;;17.58;67.06;100425.66;3596555;39;12413;-59
2021/05/24 07:51:58;;;;;;;;;3.50;2.75;;;;;17.60;65.43;100432.69;3596493;39;12076;-59
2021/05/24 07:54:26;;;;;;;;;2.00;2.00;;;;;17.58;65.99;100437.38;3596687;40;11933;-59
2021/05/24 07:56:54;;;;;;;;;5.00;2.00;;;;;16.84;68.62;100423.22;3596541;39;11932;-58
2021/05/24 07:59:21;;;;;;;;;1.50;1.50;;;;;16.86;71.50;100418.56;3596511;40;12069;-58
2021/05/24 08:01:49;;;;;;;;;2.00;2.00;;;;;16.63;71.14;100402.13;3595896;40;12262;-59
2021/05/24 08:04:16;;;;;;;;;2.00;2.00;;;;;16.27;72.08;100396.75;3595641;40;12311;-59
2021/05/24 08:06:43;;;;;;;;;1.00;1.00;;;;;15.51;70.94;100394.03;3596761;40;13145;-58
2021/05/24 08:09:11;;;;;;;;;1.00;1.00;;;;;15.91;71.46;100396.63;3596641;39;12693;-59
2021/05/24 08:11:38;;;;;;;;;2.00;2.00;;;;;16.44;71.05;100401.78;3596138;39;12703;-58
2021/05/24 08:14:06;;;;;;;;;3.00;2.00;;;;;17.98;66.85;100407.94;3594524;40;13151;-59
2021/05/24 08:16:33;;;;;;;;;2.00;2.00;;;;;17.52;69.19;100394.44;3595358;40;12935;-59
2021/05/24 08:19:01;;;;;;;;;3.00;2.00;;;;;17.27;68.87;100396.38;3596679;40;12793;-59
2021/05/24 08:21:33;;;;;;;;;2.75;1.25;;;;;16.68;68.51;100402.66;3596416;40;12733;-59
2021/05/24 08:24:00;;;;;;;;;1.50;1.50;;;;;17.32;68.66;100409.56;3596569;39;12893;-59
2021/05/24 08:26:27;;;;;;;;;1.00;1.00;;;;;17.13;67.07;100410.13;3596110;40;12706;-58
2021/05/24 08:28:55;;;;;;;;;1.00;1.00;;;;;17.03;68.41;100415.41;3595923;40;12576;-59
2021/05/24 08:31:22;;;;;;;;;1.00;1.00;;;;;16.85;68.40;100412.28;3596399;39;12192;-58
2021/05/24 08:33:50;;;;;;;;;1.00;1.00;;;;;16.98;68.05;100401.34;3595351;40;12572;-59
2021/05/24 08:36:17;;;;;;;;;1.50;1.00;;;;;17.16;70.05;100398.19;3596199;40;12328;-58
2021/05/24 08:38:44;;;;;;;;;1.75;1.00;;;;;17.43;66.68;100395.13;3596570;40;12438;-59
2021/05/24 08:41:12;;;;;;;;;1.75;1.75;;;;;17.06;68.82;100392.59;3596078;40;12840;-59
2021/05/24 08:43:40;;;;;;;;;3.50;1.00;;;;;16.52;67.99;100388.53;3596133;39;12095;-59
2021/05/24 08:46:07;;;;;;;;;1.00;1.00;;;;;16.67;66.69;100405.50;3593598;40;12313;-59
2021/05/24 08:48:35;;;;;;;;;1.75;1.75;;;;;16.36;67.62;100394.22;3595555;39;12428;-59
2021/05/24 08:51:09;;;;;;;;;4.00;1.00;;;;;17.11;67.02;100387.66;3596312;40;13056;-60
2021/05/24 08:53:38;;;;;;;;;1.00;1.00;;;;;17.70;66.21;100392.09;3595905;40;12969;-59
2021/05/24 08:56:07;;;;;;;;;1.00;1.00;;;;;17.60;64.88;100408.25;3595971;39;12303;-59
2021/05/24 08:58:36;;;;;;;;;1.00;1.00;;;;;18.24;65.71;100404.06;3594467;40;12452;-59
2021/05/24 09:01:05;;;;;;;;;3.00;1.00;;;;;17.82;66.90;100406.56;3595960;39;12161;-58
2021/05/24 09:03:35;;;;;;;;;1.25;1.00;;;;;16.94;67.43;100409.84;3593719;39;12246;-59
2021/05/24 09:06:10;;;;;;;;;3.00;1.50;;;;;16.96;67.51;100416.00;3596875;39;12197;-59
2021/05/24 09:08:42;;;;;;;;;2.00;2.00;;;;;18.01;67.09;100412.28;3595239;40;12699;-59
2021/05/24 09:11:29;;;;;;;;;1.00;1.00;;;;;18.04;65.19;100401.16;3596996;39;13081;-58
2021/05/24 09:13:56;;;;;;;;;1.75;1.75;;;;;17.75;64.66;100404.31;3595384;40;12534;-59
2021/05/24 09:16:34;;;;;;;;;1.50;1.50;;;;;17.77;64.79;100394.22;3596994;40;12202;-58
2021/05/24 09:19:14;;;;;;;;;2.25;2.00;;;;;17.95;65.48;100401.88;3595506;40;12184;-59
2021/05/24 09:22:07;;;;;;;;;1.00;1.00;;;;;18.29;63.79;100388.25;3595058;40;12638;-59
2021/05/24 09:24:41;;;;;;;;;1.50;0.75;;;;;17.58;61.95;100402.06;3594447;40;11912;-58
2021/05/24 09:27:35;;;;;;;;;3.25;3.25;;;;;18.64;63.86;100404.34;3596534;39;11682;-59
2021/05/24 09:30:07;;;;;;;;;1.00;1.00;;;;;17.52;64.59;100405.28;3595923;40;12360;-58
2021/05/24 09:32:36;;;;;;;;;1.00;1.00;;;;;17.49;65.79;100395.53;3594096;40;11528;-59
2021/05/24 09:35:07;;;;;;;;;2.00;1.50;;;;;18.12;64.42;100381.50;3593322;40;11830;-58
2021/05/24 09:37:40;;;;;;;;;1.50;1.50;;;;;18.70;63.54;100382.06;3596645;39;12066;-59
2021/05/24 09:40:22;;;;;;;;;1.00;1.00;;;;;17.95;63.37;100380.13;3604006;39;12005;-59
2021/05/24 09:42:54;;;;;;;;;1.00;1.00;;;;;17.47;65.12;100364.91;3593459;39;11590;-59
2021/05/24 09:45:21;;;;;;;;;4.00;2.00;;;;;18.59;63.38;100380.25;3595132;40;12484;-59
2021/05/24 09:47:49;;;;;;;;;1.25;1.25;;;;;18.91;62.00;100382.16;3595551;40;12205;-59
2021/05/24 09:50:21;;;;;;;;;1.00;1.00;;;;;17.60;62.42;100381.09;3594350;40;11511;-59
2021/05/24 09:52:50;;;;;;;;;1.00;1.00;;;;;18.43;66.21;100377.06;3593978;40;11550;-60
2021/05/24 09:55:24;;;;;;;;;1.00;1.00;;;;;17.30;64.09;100378.97;3595670;39;11576;-59
2021/05/24 09:57:59;;;;;;;;;2.00;1.00;;;;;17.53;66.30;100358.13;3596008;40;11521;-59
2021/05/24 10:00:47;;;;;;;;;2.00;2.00;;;;;17.38;67.05;100359.34;3595453;39;11809;-59
2021/05/24 10:03:15;;;;;;;;;2.25;2.00;;;;;17.16;66.70;100357.47;3595163;40;11931;-59
2021/05/24 10:05:50;;;;;;;;;1.00;1.00;;;;;17.11;67.54;100347.84;3595456;40;12212;-59
2021/05/24 10:08:18;;;;;;;;;1.50;1.50;;;;;17.38;66.68;100340.34;3595377;40;12888;-59
2021/05/24 10:10:45;;;;;;;;;2.00;2.00;;;;;17.54;68.46;100335.44;3593446;39;12317;-60
2021/05/24 10:13:13;;;;;;;;;2.00;2.00;;;;;17.30;65.24;100341.84;3595297;39;12058;-59
2021/05/24 10:15:43;;;;;;;;;1.50;1.25;;;;;17.61;63.36;100343.94;3596002;39;12061;-59
2021/05/24 10:18:12;;;;;;;;;1.00;1.00;;;;;17.90;62.54;100338.91;3595995;40;11923;-59
2021/05/24 10:20:40;;;;;;;;;1.50;1.50;;;;;18.19;63.53;100334.66;3594999;39;11950;-59
2021/05/24 10:23:07;;;;;;;;;1.00;1.00;;;;;18.14;64.42;100336.00;3593742;39;11803;-59
2021/05/24 10:25:36;;;;;;;;;2.00;2.00;;;;;18.88;62.49;100336.16;3593941;39;11840;-60
2021/05/24 10:28:06;;;;;;;;;2.00;2.00;;;;;18.40;61.79;100340.16;3589812;40;11471;-59
2021/05/24 10:30:55;;;;;;;;;5.00;2.00;;;;;18.55;61.99;100339.84;3595867;39;11439;-59
2021/05/24 10:33:27;;;;;;;;;1.75;1.00;;;;;18.26;64.75;100339.56;3592624;40;11459;-60
2021/05/24 10:35:54;;;;;;;;;2.00;1.75;;;;;17.54;65.48;100327.28;3596430;39;11686;-59
2021/05/24 10:38:33;;;;;;;;;2.50;2.50;;;;;17.94;66.59;100337.66;3596111;39;11960;-59
2021/05/24 10:41:20;;;;;;;;;1.50;1.50;;;;;17.28;66.33;100338.38;3596566;39;11970;-59
2021/05/24 10:43:56;;;;;;;;;2.25;2.00;;;;;17.30;66.73;100340.97;3594590;40;12117;-60
2021/05/24 10:46:28;;;;;;;;;2.00;2.00;;;;;17.55;67.76;100348.03;3595440;40;11934;-59
2021/05/24 10:49:20;;;;;;;;;2.00;2.00;;;;;17.78;66.24;100346.16;3595633;39;12372;-59
2021/05/24 10:51:49;;;;;;;;;2.50;1.25;;;;;17.86;65.12;100342.88;3594889;40;12460;-59
2021/05/24 10:54:26;;;;;;;;;2.00;2.00;;;;;18.50;66.06;100342.09;3594571;40;12114;-59
2021/05/24 10:57:02;;;;;;;;;1.00;1.00;;;;;18.58;64.91;100342.31;3594774;40;12226;-59
2021/05/24 10:59:42;;;;;;;;;1.50;1.50;;;;;17.96;64.12;100338.41;3595115;40;11956;-59
2021/05/24 11:02:28;;;;;;;;;1.00;1.00;;;;;17.46;64.25;100330.63;3595214;39;11663;-59
2021/05/24 11:05:04;;;;;;;;;2.00;2.00;;;;;17.76;64.63;100321.84;3594042;40;11658;-58
2021/05/24 11:07:53;;;;;;;;;2.00;2.00;;;;;18.45;64.04;100330.72;3593139;40;12270;-59
2021/05/24 11:10:24;;;;;;;;;2.75;2.00;;;;;17.89;66.63;100331.75;3594888;39;11958;-59
2021/05/24 11:12:56;;;;;;;;;2.25;1.00;;;;;18.00;65.73;100329.00;3596634;39;12448;-59
2021/05/24 11:15:34;;;;;;;;;1.00;1.00;;;;;17.68;66.13;100321.59;3597100;39;12069;-60
2021/05/24 11:18:07;;;;;;;;;2.00;2.00;;;;;17.52;66.01;100331.97;3596218;40;12105;-59
2021/05/24 11:20:39;;;;;;;;;1.00;1.00;;;;;17.53;63.52;100326.41;3597754;39;12344;-60
2021/05/24 11:26:15;;;;;;;;;1.25;1.25;;;;;17.77;66.42;100312.72;3594990;39;12081;-60
2021/05/24 11:29:07;;;;;;;;;2.00;1.25;;;;;17.36;65.50;100302.47;3598065;39;13008;-59
2021/05/24 11:31:35;;;;;;;;;1.25;1.00;;;;;17.44;65.76;100313.59;3599077;39;12527;-59
2021/05/24 11:34:08;;;;;;;;;1.75;1.75;;;;;17.75;66.43;100316.53;3596941;40;12359;-59
2021/05/24 11:36:36;;;;;;;;;2.00;2.00;;;;;17.31;66.57;100304.69;3597351;39;12456;-59
2021/05/24 11:39:35;;;;;;;;;2.25;2.25;;;;;17.36;68.47;100307.91;3597464;39;12509;-59